Time;durP1;ratioP1;P1;durP2;ratioP2;P2;SDS_P1;SDS_P2;PMS_P1;PMS_P2;Temp;Humidity;BMP_temperature;BMP_pressure;BME280_temperature;BME280_humidity;BME280_pressure;Samples;Min_cycle;Max_cycle;Signal;HPM_P1;HPM_P2
2022/01/13 00:02:14;;;;;;;20.67;15.50;;;4.30;99.90;;;;;;5050856;28;20322;-52
2022/01/13 00:04:40;;;;;;;26.80;17.73;;;4.30;99.90;;;;;;5052187;28;20176;-50
2022/01/13 00:07:06;;;;;;;23.87;17.67;;;4.30;99.90;;;;;;5051634;28;20467;-50
2022/01/13 00:09:32;;;;;;;24.60;17.00;;;4.30;99.90;;;;;;5055490;28;20207;-52
2022/01/13 00:11:58;;;;;;;22.00;16.87;;;4.30;99.90;;;;;;5050675;28;20438;-49
2022/01/13 00:14:40;;;;;;;24.80;17.30;;;4.40;99.90;;;;;;5049394;28;20188;-50
2022/01/13 00:24:43;;;;;;;20.70;15.53;;;4.20;99.90;;;;;;5050662;28;20813;-52
2022/01/13 00:27:12;;;;;;;24.87;15.77;;;4.20;99.90;;;;;;5054871;28;20454;-52
2022/01/13 00:29:44;;;;;;;24.57;16.87;;;4.20;99.90;;;;;;5051424;28;20442;-50
2022/01/13 00:32:13;;;;;;;21.27;15.60;;;4.10;99.90;;;;;;5052105;28;21031;-48
2022/01/13 00:34:40;;;;;;;20.77;16.60;;;4.10;99.90;;;;;;5053394;28;20949;-51
2022/01/13 00:37:05;;;;;;;25.00;17.00;;;4.10;99.90;;;;;;5051161;28;20466;-51
2022/01/13 00:39:31;;;;;;;24.07;16.13;;;4.00;99.90;;;;;;5052499;28;20443;-52
2022/01/13 00:41:57;;;;;;;21.90;17.00;;;4.00;99.90;;;;;;5053786;28;20189;-51
2022/01/13 00:44:22;;;;;;;25.00;16.07;;;4.00;99.90;;;;;;5050276;28;20204;-54
2022/01/13 00:46:55;;;;;;;24.43;15.97;;;4.10;99.90;;;;;;5052489;28;20609;-54
2022/01/13 00:49:21;;;;;;;21.33;16.13;;;4.10;99.90;;;;;;5052509;28;20274;-52
2022/01/13 00:51:46;;;;;;;29.80;17.00;;;4.10;99.90;;;;;;5051683;28;20892;-55
2022/01/13 00:54:12;;;;;;;24.97;15.93;;;4.10;99.90;;;;;;5051009;28;20621;-51
2022/01/13 00:56:39;;;;;;;22.53;15.20;;;4.10;99.90;;;;;;5049917;28;20223;-52
2022/01/13 00:59:09;;;;;;;23.97;15.97;;;4.20;99.90;;;;;;5049788;28;20185;-54
2022/01/13 01:01:40;;;;;;;22.40;15.90;;;4.10;99.90;;;;;;5049859;28;20481;-53
2022/01/13 01:04:06;;;;;;;21.83;15.57;;;4.00;99.90;;;;;;5044719;28;20635;-50
2022/01/13 01:06:33;;;;;;;23.67;18.13;;;3.80;99.90;;;;;;5050973;28;20533;-52
2022/01/13 01:08:59;;;;;;;27.30;15.83;;;3.80;99.90;;;;;;5051583;28;21645;-49
2022/01/13 01:11:26;;;;;;;23.27;16.67;;;3.80;99.90;;;;;;5049919;28;20446;-50
2022/01/13 01:13:53;;;;;;;21.80;15.63;;;3.90;99.90;;;;;;5048477;28;20488;-54
2022/01/13 01:16:19;;;;;;;22.40;15.07;;;3.90;99.90;;;;;;5048683;28;20950;-51
2022/01/13 01:29:21;;;;;;;23.03;16.40;;;4.30;99.90;;;;;;5049843;28;20422;-47
2022/01/13 01:31:45;;;;;;;21.93;15.80;;;4.10;99.90;;;;;;5052446;28;20425;-46
2022/01/13 01:36:36;;;;;;;25.83;17.80;;;4.30;99.90;;;;;;5052335;28;20511;-47
2022/01/13 01:39:03;;;;;;;24.03;16.40;;;4.20;99.90;;;;;;5049211;28;20270;-52
2022/01/13 01:41:28;;;;;;;22.23;15.80;;;4.20;99.90;;;;;;5050847;28;20258;-47
2022/01/13 01:44:00;;;;;;;21.87;15.87;;;4.30;99.90;;;;;;5047068;28;20465;-46
2022/01/13 01:46:26;;;;;;;19.77;15.20;;;4.20;99.90;;;;;;5045941;28;20688;-49
2022/01/13 01:48:52;;;;;;;23.53;16.47;;;4.30;99.90;;;;;;5047883;28;20425;-53
2022/01/13 01:51:18;;;;;;;26.77;17.20;;;4.40;99.90;;;;;;5048834;28;20381;-48
2022/01/13 01:53:43;;;;;;;23.97;17.33;;;4.30;99.90;;;;;;5049038;28;20522;-45
2022/01/13 01:56:09;;;;;;;22.60;15.70;;;4.40;99.90;;;;;;5049058;28;20219;-47
2022/01/13 01:58:37;;;;;;;23.90;15.67;;;4.40;99.90;;;;;;5046829;28;20187;-50
2022/01/13 02:01:02;;;;;;;24.90;16.70;;;4.50;99.90;;;;;;5049153;28;20426;-50
2022/01/13 02:03:30;;;;;;;24.73;16.47;;;4.30;99.90;;;;;;5047597;28;20514;-50
2022/01/13 02:05:56;;;;;;;23.67;15.70;;;4.40;99.90;;;;;;5048749;28;20206;-49
2022/01/13 02:08:22;;;;;;;25.53;16.90;;;4.20;99.90;;;;;;5047730;28;20454;-49
2022/01/13 02:10:47;;;;;;;27.03;16.80;;;4.30;99.90;;;;;;5048701;28;20436;-49
2022/01/13 02:13:19;;;;;;;26.97;16.50;;;4.30;99.90;;;;;;5049287;28;20270;-51
2022/01/13 02:16:06;;;;;;;22.07;16.03;;;4.30;99.90;;;;;;5051182;28;20207;-48
2022/01/13 02:18:33;;;;;;;24.40;17.60;;;4.10;99.90;;;;;;5048244;28;20427;-52
2022/01/13 02:21:01;;;;;;;23.87;16.33;;;3.90;99.90;;;;;;5053405;28;20456;-50
2022/01/13 02:23:36;;;;;;;27.30;18.50;;;4.10;99.90;;;;;;5046842;28;20563;-53
2022/01/13 02:26:03;;;;;;;23.77;17.37;;;4.10;99.90;;;;;;5048579;28;20440;-51
2022/01/13 02:28:29;;;;;;;23.90;17.90;;;3.90;99.90;;;;;;5050074;28;20443;-51
2022/01/13 02:30:55;;;;;;;25.77;18.33;;;3.90;99.90;;;;;;5049379;28;20436;-47
2022/01/13 02:33:20;;;;;;;19.47;16.13;;;4.00;99.90;;;;;;5045972;28;20842;-53
2022/01/13 02:35:46;;;;;;;21.37;15.10;;;4.00;99.90;;;;;;5048932;28;20394;-51
2022/01/13 02:38:12;;;;;;;24.53;17.30;;;3.80;99.90;;;;;;5049573;28;20733;-54
2022/01/13 02:40:38;;;;;;;30.67;18.27;;;3.80;99.90;;;;;;5050530;28;20190;-49
2022/01/13 02:43:05;;;;;;;25.00;17.23;;;3.90;99.90;;;;;;5049912;28;20603;-53
2022/01/13 02:45:35;;;;;;;24.50;17.80;;;3.90;99.90;;;;;;5047011;28;20458;-49
2022/01/13 02:48:46;;;;;;;26.97;18.43;;;3.90;99.90;;;;;;5048870;28;20429;-52
2022/01/13 02:50:47;;;;;;;23.27;17.13;;;3.90;99.90;;;;;;5035387;28;20438;-47
2022/01/13 02:53:12;;;;;;;22.30;16.63;;;3.90;99.90;;;;;;5047123;28;20468;-51
2022/01/13 02:55:38;;;;;;;23.57;15.60;;;3.90;99.90;;;;;;5046881;28;20208;-50
2022/01/13 02:58:04;;;;;;;25.53;16.20;;;3.80;99.90;;;;;;5048963;28;20191;-53
2022/01/13 03:00:30;;;;;;;23.10;16.83;;;3.80;99.90;;;;;;5052392;28;20568;-50
2022/01/13 03:02:55;;;;;;;24.17;16.87;;;3.80;99.90;;;;;;5049967;28;20465;-49
2022/01/13 03:05:21;;;;;;;25.60;17.60;;;3.80;99.90;;;;;;5050259;28;20448;-52
2022/01/13 03:07:47;;;;;;;25.67;16.40;;;3.60;99.90;;;;;;5051812;28;20239;-51
2022/01/13 03:10:13;;;;;;;27.43;17.90;;;3.40;99.90;;;;;;5051952;28;20188;-49
2022/01/13 03:12:43;;;;;;;25.33;17.37;;;3.40;99.90;;;;;;5054015;28;20179;-50
2022/01/13 03:15:08;;;;;;;26.13;17.20;;;3.40;99.90;;;;;;5050898;28;20445;-48
2022/01/13 03:17:34;;;;;;;24.40;16.50;;;3.50;99.90;;;;;;5051897;28;20458;-49
2022/01/13 03:20:00;;;;;;;22.50;17.03;;;3.50;99.90;;;;;;5051468;28;20232;-53
2022/01/13 03:22:25;;;;;;;26.10;18.57;;;3.50;99.90;;;;;;5052697;28;20210;-48
2022/01/13 03:24:51;;;;;;;29.40;18.63;;;3.50;99.90;;;;;;5051084;28;20183;-49
2022/01/13 03:27:22;;;;;;;22.80;16.40;;;3.50;99.90;;;;;;5053692;28;20282;-50
2022/01/13 03:29:49;;;;;;;26.20;16.93;;;3.60;99.90;;;;;;5051389;28;20278;-51
2022/01/13 03:32:16;;;;;;;22.47;16.20;;;3.50;99.90;;;;;;5051808;28;20443;-50
2022/01/13 03:34:42;;;;;;;28.03;18.47;;;3.50;99.90;;;;;;5050235;28;20442;-49
2022/01/13 03:37:08;;;;;;;29.00;17.97;;;3.40;99.90;;;;;;5052557;28;20446;-49
2022/01/13 03:39:33;;;;;;;23.47;16.93;;;3.40;99.90;;;;;;5055006;28;20199;-51
2022/01/13 03:42:02;;;;;;;23.10;16.57;;;3.40;99.90;;;;;;5050124;28;20811;-50
2022/01/13 03:44:27;;;;;;;22.10;16.30;;;3.30;99.90;;;;;;5051879;28;20240;-47
2022/01/13 03:46:59;;;;;;;25.03;18.00;;;3.50;99.90;;;;;;5052377;28;20466;-53
2022/01/13 03:49:25;;;;;;;25.10;17.67;;;3.50;99.90;;;;;;5051949;28;20688;-52
2022/01/13 03:51:51;;;;;;;30.63;16.57;;;3.50;99.90;;;;;;5051112;28;20473;-48
2022/01/13 03:54:40;;;;;;;27.67;18.37;;;3.30;99.90;;;;;;5052117;28;20605;-50
2022/01/13 03:57:53;;;;;;;23.83;16.57;;;3.40;99.90;;;;;;5014006;28;20252;-51
2022/01/13 04:00:42;;;;;;;21.50;15.97;;;3.30;99.90;;;;;;5050303;28;20508;-50
2022/01/13 04:03:08;;;;;;;23.37;16.27;;;3.30;99.90;;;;;;5051833;28;20460;-50
2022/01/13 04:06:02;;;;;;;22.57;16.43;;;3.30;99.90;;;;;;5049278;28;20454;-51
2022/01/13 04:08:29;;;;;;;27.63;17.80;;;3.20;99.90;;;;;;5047265;28;20936;-51
2022/01/13 04:11:03;;;;;;;27.50;18.00;;;3.20;99.90;;;;;;5053737;28;20426;-49
2022/01/13 04:14:26;;;;;;;25.60;17.10;;;3.00;99.90;;;;;;5052139;28;20436;-49
2022/01/13 04:16:25;;;;;;;25.00;17.33;;;3.00;99.90;;;;;;5033141;28;20480;-49
2022/01/13 04:18:51;;;;;;;32.37;20.00;;;3.00;99.90;;;;;;5055298;28;20514;-52
2022/01/13 04:21:18;;;;;;;24.83;17.00;;;3.00;99.90;;;;;;5050021;28;20449;-49
2022/01/13 04:23:44;;;;;;;25.83;17.50;;;2.80;99.90;;;;;;5052238;28;20997;-51
2022/01/13 04:26:11;;;;;;;26.20;17.10;;;2.90;99.90;;;;;;5053465;28;20571;-51
2022/01/13 04:28:40;;;;;;;28.20;17.60;;;3.00;99.90;;;;;;5032715;28;20445;-51
2022/01/13 04:31:05;;;;;;;30.50;18.03;;;3.00;99.90;;;;;;5052182;28;20426;-49
2022/01/13 04:33:33;;;;;;;29.30;17.90;;;2.90;99.90;;;;;;5052246;28;20477;-48
2022/01/13 04:36:00;;;;;;;28.37;18.17;;;2.90;99.90;;;;;;5049556;28;20222;-48
2022/01/13 04:38:26;;;;;;;31.37;18.83;;;2.90;99.90;;;;;;5050918;28;20528;-47
2022/01/13 04:40:56;;;;;;;22.80;16.60;;;2.90;99.90;;;;;;5051480;28;20950;-47
2022/01/13 04:43:28;;;;;;;23.43;18.07;;;2.90;99.90;;;;;;5050819;28;20821;-46
2022/01/13 04:45:53;;;;;;;25.53;17.80;;;3.00;99.90;;;;;;5051033;28;20445;-52
2022/01/13 04:48:19;;;;;;;27.20;17.20;;;2.90;99.90;;;;;;5052087;28;20908;-52
2022/01/13 04:50:45;;;;;;;26.10;17.97;;;3.00;99.90;;;;;;5051814;28;20510;-50
2022/01/13 04:53:12;;;;;;;25.60;17.27;;;3.00;99.90;;;;;;5049482;28;20198;-53
2022/01/13 04:55:38;;;;;;;30.03;18.77;;;3.00;99.90;;;;;;5050719;28;20942;-49
2022/01/13 04:58:06;;;;;;;26.00;17.17;;;3.00;99.90;;;;;;5050061;28;20441;-49
2022/01/13 05:00:33;;;;;;;27.03;18.97;;;3.10;99.90;;;;;;5050750;28;21251;-53
2022/01/13 05:02:59;;;;;;;26.37;18.77;;;3.00;99.90;;;;;;5032223;28;20466;-49
2022/01/13 05:05:26;;;;;;;25.33;17.77;;;3.00;99.90;;;;;;5049374;28;20584;-52
2022/01/13 05:07:52;;;;;;;28.77;18.43;;;2.90;99.90;;;;;;5049827;28;20461;-54
2022/01/13 05:10:18;;;;;;;29.23;19.47;;;2.90;99.90;;;;;;5051301;28;20542;-48
2022/01/13 05:12:46;;;;;;;27.10;17.13;;;2.80;99.90;;;;;;5049519;28;20536;-51
2022/01/13 05:15:23;;;;;;;25.03;18.37;;;2.70;99.90;;;;;;5048190;28;20848;-53
2022/01/13 05:20:40;;;;;;;30.93;18.97;;;2.70;99.90;;;;;;5048952;28;20536;-50
2022/01/13 05:23:08;;;;;;;27.60;19.50;;;2.80;99.90;;;;;;5051101;28;20492;-49
2022/01/13 05:25:34;;;;;;;28.00;17.90;;;2.80;99.90;;;;;;5049499;28;20487;-48
2022/01/13 05:28:00;;;;;;;26.20;18.30;;;2.60;99.90;;;;;;5050879;28;20531;-50
2022/01/13 05:30:25;;;;;;;26.57;17.57;;;2.60;99.90;;;;;;5049656;28;21106;-52
2022/01/13 05:32:51;;;;;;;25.50;17.00;;;2.50;99.90;;;;;;5051273;28;20183;-51
2022/01/13 05:35:17;;;;;;;27.80;19.00;;;2.50;99.90;;;;;;5048886;28;20213;-50
2022/01/13 05:37:44;;;;;;;28.10;18.00;;;2.60;99.90;;;;;;5050238;28;20192;-51
2022/01/13 05:40:12;;;;;;;27.57;18.50;;;2.60;99.90;;;;;;5048938;28;20194;-50
2022/01/13 05:42:39;;;;;;;28.67;17.63;;;2.70;99.90;;;;;;5038164;28;20492;-51
2022/01/13 05:45:07;;;;;;;26.37;17.37;;;2.70;99.90;;;;;;5050357;28;20452;-52
2022/01/13 05:47:33;;;;;;;30.53;18.03;;;2.80;99.90;;;;;;5047375;28;20445;-50
2022/01/13 05:49:58;;;;;;;28.63;17.70;;;2.80;99.90;;;;;;5049659;28;20498;-47
2022/01/13 05:52:24;;;;;;;25.70;16.97;;;2.70;99.90;;;;;;5049766;28;20191;-51
2022/01/13 05:54:49;;;;;;;24.47;17.67;;;2.70;99.90;;;;;;5049328;28;20711;-49
2022/01/13 05:57:15;;;;;;;28.03;18.60;;;2.80;99.90;;;;;;5048170;28;20257;-52
2022/01/13 05:59:40;;;;;;;26.47;16.80;;;2.70;99.90;;;;;;5047990;28;20559;-52
2022/01/13 06:02:06;;;;;;;24.07;18.00;;;2.80;99.90;;;;;;5047337;28;20437;-51
2022/01/13 06:04:32;;;;;;;26.27;18.70;;;2.80;99.90;;;;;;5048635;28;20210;-48
2022/01/13 06:06:58;;;;;;;23.03;16.43;;;2.80;99.90;;;;;;5048585;28;20742;-50
2022/01/13 06:09:24;;;;;;;26.27;18.80;;;2.90;99.90;;;;;;5048919;28;20187;-52
2022/01/13 06:11:59;;;;;;;27.23;17.80;;;2.90;99.90;;;;;;5050902;28;20439;-50
2022/01/13 06:14:25;;;;;;;26.87;18.53;;;2.80;99.90;;;;;;5047139;28;20268;-48
2022/01/13 06:16:50;;;;;;;31.63;19.03;;;2.80;99.90;;;;;;5051574;28;20888;-52
2022/01/13 06:19:16;;;;;;;25.93;18.43;;;2.70;99.90;;;;;;5050167;28;20976;-48
2022/01/13 06:21:41;;;;;;;26.97;18.83;;;2.70;99.90;;;;;;5047933;28;20286;-52
2022/01/13 06:24:07;;;;;;;26.97;18.10;;;2.80;99.90;;;;;;5048290;28;20298;-48
2022/01/13 06:26:33;;;;;;;27.50;18.13;;;2.60;99.90;;;;;;5048856;28;20553;-48
2022/01/13 06:28:58;;;;;;;28.27;20.07;;;2.50;99.90;;;;;;5053100;28;20472;-52
2022/01/13 06:31:24;;;;;;;26.20;19.07;;;2.50;99.90;;;;;;5051407;28;20501;-51
2022/01/13 06:33:50;;;;;;;26.20;18.80;;;2.60;99.90;;;;;;5051519;28;20215;-51
2022/01/13 06:36:15;;;;;;;26.60;18.00;;;2.70;99.90;;;;;;5054473;28;20294;-51
2022/01/13 06:38:42;;;;;;;27.13;19.00;;;2.70;99.90;;;;;;5053198;28;20608;-51
2022/01/13 06:41:08;;;;;;;29.33;19.10;;;2.70;99.90;;;;;;5054931;28;20514;-49
2022/01/13 06:43:35;;;;;;;29.47;20.23;;;2.60;99.90;;;;;;5052207;28;22333;-54
2022/01/13 06:46:01;;;;;;;28.77;19.30;;;2.70;99.90;;;;;;5054379;28;20252;-47
2022/01/13 06:48:26;;;;;;;30.20;19.17;;;2.80;99.90;;;;;;5056629;28;20555;-51
2022/01/13 06:50:52;;;;;;;29.03;19.10;;;2.80;99.90;;;;;;5054951;28;20249;-54
2022/01/13 06:53:20;;;;;;;24.97;18.33;;;2.70;99.90;;;;;;5054917;28;20567;-51
2022/01/13 06:55:45;;;;;;;31.30;20.07;;;2.70;99.90;;;;;;5052673;28;20262;-52
2022/01/13 06:58:11;;;;;;;28.47;18.30;;;2.70;99.90;;;;;;5052830;28;20474;-54
2022/01/13 07:00:37;;;;;;;28.27;19.37;;;2.70;99.90;;;;;;5052196;28;20603;-49
2022/01/13 07:03:03;;;;;;;24.17;18.17;;;2.50;99.90;;;;;;5051179;28;20225;-49
2022/01/13 07:05:29;;;;;;;29.33;19.50;;;2.60;99.90;;;;;;5052209;28;20455;-50
2022/01/13 07:07:55;;;;;;;27.20;19.97;;;2.50;99.90;;;;;;5051390;28;20441;-49
2022/01/13 07:10:21;;;;;;;25.70;18.37;;;2.50;99.90;;;;;;5049160;28;20201;-48
2022/01/13 07:12:47;;;;;;;31.60;21.47;;;2.60;99.90;;;;;;5049696;28;20494;-46
2022/01/13 07:15:13;;;;;;;28.97;19.53;;;2.40;99.90;;;;;;5055184;28;20421;-46
2022/01/13 07:17:39;;;;;;;32.17;20.37;;;2.30;99.90;;;;;;5054310;28;21296;-46
2022/01/13 07:20:06;;;;;;;31.13;20.37;;;2.20;99.90;;;;;;5038433;28;20939;-50
2022/01/13 07:22:32;;;;;;;24.57;17.40;;;2.30;99.90;;;;;;5054247;28;20428;-51
2022/01/13 07:24:57;;;;;;;28.73;19.10;;;2.40;99.90;;;;;;5050720;28;20506;-51
2022/01/13 07:27:23;;;;;;;34.10;19.53;;;2.40;99.90;;;;;;5054670;28;20680;-53
2022/01/13 07:29:48;;;;;;;30.23;18.97;;;2.50;99.90;;;;;;5049853;28;20212;-47
2022/01/13 07:32:15;;;;;;;28.63;18.23;;;2.40;99.90;;;;;;5052766;28;20676;-53
2022/01/13 07:34:41;;;;;;;26.70;20.07;;;2.50;99.90;;;;;;5054484;28;20187;-49
2022/01/13 07:37:07;;;;;;;31.80;21.70;;;2.40;99.90;;;;;;5050078;28;20875;-48
2022/01/13 07:39:35;;;;;;;32.60;18.40;;;2.40;99.90;;;;;;5028818;28;21142;-50
2022/01/13 07:42:02;;;;;;;31.40;19.07;;;2.40;99.90;;;;;;5051503;28;20447;-53
2022/01/13 07:44:27;;;;;;;33.90;19.00;;;2.50;99.90;;;;;;5051007;28;20474;-52
2022/01/13 07:46:53;;;;;;;33.43;20.33;;;2.50;99.90;;;;;;5051620;28;20457;-52
2022/01/13 07:49:19;;;;;;;33.23;21.47;;;2.60;99.90;;;;;;5050584;28;20213;-48
2022/01/13 07:51:44;;;;;;;47.40;27.00;;;2.60;99.90;;;;;;5053971;28;20199;-51
2022/01/13 07:54:10;;;;;;;32.07;19.20;;;2.50;99.90;;;;;;5047277;28;20199;-48
2022/01/13 07:56:35;;;;;;;29.67;19.03;;;2.50;99.90;;;;;;5054481;28;20242;-51
2022/01/13 07:59:01;;;;;;;27.80;18.37;;;2.60;99.90;;;;;;5049796;28;20203;-53
2022/01/13 08:01:27;;;;;;;31.20;18.47;;;2.50;99.90;;;;;;5049363;28;20521;-48
2022/01/13 08:03:53;;;;;;;26.80;18.10;;;2.50;99.90;;;;;;5046281;28;20208;-47
2022/01/13 08:06:18;;;;;;;27.63;18.67;;;2.50;99.90;;;;;;5050234;28;20207;-51
2022/01/13 08:08:44;;;;;;;29.90;18.63;;;2.50;99.90;;;;;;5052025;28;20208;-49
2022/01/13 08:11:09;;;;;;;27.70;18.07;;;2.40;99.90;;;;;;5052629;28;20283;-51
2022/01/13 08:13:36;;;;;;;33.07;20.40;;;2.50;99.90;;;;;;5052718;28;20234;-49
2022/01/13 08:16:06;;;;;;;30.50;19.10;;;2.50;99.90;;;;;;5051894;28;20269;-49
2022/01/13 08:21:17;;;;;;;29.63;20.30;;;2.50;99.90;;;;;;5050785;28;20444;-52
2022/01/13 08:23:43;;;;;;;26.70;17.87;;;2.50;99.90;;;;;;5047429;28;20494;-48
2022/01/13 08:26:09;;;;;;;28.13;21.30;;;2.50;99.90;;;;;;5047780;28;20457;-53
2022/01/13 08:28:34;;;;;;;28.47;20.00;;;2.60;99.90;;;;;;5051658;28;20278;-56
2022/01/13 08:31:00;;;;;;;28.83;19.00;;;2.60;99.90;;;;;;5049875;28;20606;-54
2022/01/13 08:33:26;;;;;;;29.53;20.47;;;2.60;99.90;;;;;;5034099;28;20180;-50
2022/01/13 08:35:53;;;;;;;31.53;20.13;;;2.50;99.90;;;;;;5049717;28;20296;-53
2022/01/13 08:38:19;;;;;;;32.77;21.23;;;2.70;99.90;;;;;;5050874;28;20453;-50
2022/01/13 08:40:47;;;;;;;29.80;21.03;;;2.80;99.90;;;;;;5049362;28;20434;-50
2022/01/13 08:43:14;;;;;;;35.03;22.53;;;2.80;99.90;;;;;;5051824;28;20602;-51
2022/01/13 08:45:40;;;;;;;35.40;22.37;;;2.80;99.90;;;;;;5047692;28;20935;-50
2022/01/13 08:48:06;;;;;;;42.50;25.77;;;2.80;99.90;;;;;;5046705;28;20446;-50
2022/01/13 08:50:32;;;;;;;40.57;25.00;;;2.80;99.90;;;;;;5050377;28;20436;-52
2022/01/13 08:52:58;;;;;;;33.37;21.80;;;2.70;99.90;;;;;;5048700;28;20617;-50
2022/01/13 08:55:23;;;;;;;31.30;21.30;;;2.80;99.90;;;;;;5046838;28;22351;-52
2022/01/13 08:57:49;;;;;;;36.50;22.03;;;2.80;99.90;;;;;;5049842;28;20194;-53
2022/01/13 09:00:15;;;;;;;41.30;22.77;;;2.80;99.90;;;;;;5050209;28;20190;-49
2022/01/13 09:02:42;;;;;;;30.20;20.67;;;2.90;99.90;;;;;;5047737;28;20196;-52
2022/01/13 09:05:08;;;;;;;43.17;27.27;;;3.00;99.90;;;;;;5051229;28;20571;-50
2022/01/13 09:07:34;;;;;;;34.80;23.70;;;3.10;99.90;;;;;;5048877;28;20536;-52
2022/01/13 09:09:59;;;;;;;35.53;22.30;;;3.30;99.90;;;;;;5047935;28;21022;-52
2022/01/13 09:12:25;;;;;;;32.00;20.70;;;3.30;99.90;;;;;;5049880;28;20547;-52
2022/01/13 09:14:58;;;;;;;33.10;20.73;;;3.30;99.90;;;;;;5047453;28;20195;-54
2022/01/13 09:17:24;;;;;;;31.90;20.83;;;3.30;99.90;;;;;;5047860;28;20467;-52
2022/01/13 09:19:51;;;;;;;27.80;20.67;;;3.30;99.90;;;;;;5048895;28;20442;-55
2022/01/13 09:22:17;;;;;;;28.10;17.97;;;3.30;99.90;;;;;;5035577;28;20454;-53
2022/01/13 09:24:43;;;;;;;32.87;20.47;;;3.20;99.90;;;;;;5059597;28;20467;-52
2022/01/13 09:27:09;;;;;;;29.53;19.80;;;3.30;99.90;;;;;;5058860;28;20938;-53
2022/01/13 09:29:35;;;;;;;30.57;20.13;;;3.40;99.90;;;;;;5050704;28;21005;-53
2022/01/13 09:32:02;;;;;;;27.80;19.13;;;3.40;99.90;;;;;;5049155;28;20472;-52
2022/01/13 09:34:28;;;;;;;26.93;18.77;;;3.50;99.90;;;;;;5053493;28;20434;-52
2022/01/13 09:36:53;;;;;;;29.77;20.37;;;3.40;99.90;;;;;;5051544;28;20464;-54
2022/01/13 09:39:19;;;;;;;31.13;20.23;;;3.50;99.90;;;;;;5050355;28;20241;-51
2022/01/13 09:41:46;;;;;;;31.30;19.60;;;3.50;99.90;;;;;;5033112;28;20273;-52
2022/01/13 09:44:13;;;;;;;25.60;18.33;;;3.70;99.90;;;;;;5044948;28;20206;-56
2022/01/13 09:46:39;;;;;;;30.53;18.73;;;3.80;99.90;;;;;;5037927;28;20457;-52
2022/01/13 09:49:06;;;;;;;28.47;19.20;;;3.60;99.90;;;;;;5048855;28;20916;-52
2022/01/13 09:51:34;;;;;;;26.30;17.93;;;3.70;99.90;;;;;;5048915;28;20425;-52
2022/01/13 09:54:01;;;;;;;28.20;17.93;;;3.70;99.90;;;;;;5051459;28;20490;-53
2022/01/13 09:56:27;;;;;;;29.90;19.87;;;3.80;99.90;;;;;;5048876;28;21367;-51
2022/01/13 09:58:53;;;;;;;25.93;18.17;;;3.90;99.90;;;;;;5050429;28;21259;-52
2022/01/13 10:01:19;;;;;;;29.73;17.07;;;3.90;99.90;;;;;;5046934;28;20608;-52
2022/01/13 10:03:45;;;;;;;23.53;17.80;;;3.90;99.90;;;;;;5046783;28;20469;-52
2022/01/13 10:06:16;;;;;;;25.00;16.20;;;4.00;99.90;;;;;;5053191;28;20762;-48
2022/01/13 10:08:44;;;;;;;21.50;15.90;;;4.10;99.90;;;;;;5039271;28;20553;-53
2022/01/13 10:11:27;;;;;;;27.93;16.93;;;4.10;99.90;;;;;;5054434;28;20802;-49
2022/01/13 10:14:13;;;;;;;25.93;18.30;;;4.10;99.90;;;;;;5052228;28;20856;-46
2022/01/13 10:16:44;;;;;;;23.83;16.20;;;4.10;99.90;;;;;;5050564;28;20449;-53
2022/01/13 10:19:32;;;;;;;25.10;17.13;;;4.00;99.90;;;;;;5053580;28;20436;-53
2022/01/13 10:22:19;;;;;;;27.07;18.07;;;4.20;99.90;;;;;;5053367;28;20480;-54
2022/01/13 10:24:52;;;;;;;23.40;15.30;;;4.30;99.90;;;;;;5051348;28;20504;-52
2022/01/13 10:27:27;;;;;;;21.20;15.73;;;4.40;99.90;;;;;;5053766;28;20510;-52
2022/01/13 10:30:16;;;;;;;25.60;16.37;;;4.60;99.90;;;;;;5053071;28;20498;-48
2022/01/13 10:32:44;;;;;;;27.10;15.13;;;4.60;99.90;;;;;;5052933;28;20441;-50
2022/01/13 10:35:12;;;;;;;19.90;14.50;;;4.70;99.90;;;;;;5053564;28;20529;-52
2022/01/13 10:37:42;;;;;;;23.63;16.53;;;4.70;99.90;;;;;;5051219;28;20807;-53
2022/01/13 10:40:11;;;;;;;20.40;16.13;;;4.70;99.90;;;;;;5051654;28;20438;-51
2022/01/13 10:45:23;;;;;;;23.40;16.77;;;4.80;99.90;;;;;;5053761;28;20424;-52
2022/01/13 10:48:02;;;;;;;21.30;15.13;;;4.90;99.90;;;;;;5051039;28;20433;-53
2022/01/13 10:50:29;;;;;;;20.90;14.77;;;5.00;99.90;;;;;;5055489;28;20426;-51
2022/01/13 10:53:02;;;;;;;21.60;15.83;;;4.90;99.90;;;;;;5035483;28;20442;-53
2022/01/13 10:55:29;;;;;;;19.23;13.77;;;4.90;99.90;;;;;;5051501;28;20550;-52
2022/01/13 10:57:55;;;;;;;22.40;14.90;;;4.90;99.90;;;;;;5051862;28;20434;-47
2022/01/13 11:00:23;;;;;;;23.53;13.33;;;4.90;99.90;;;;;;5052204;28;20442;-54
2022/01/13 11:03:12;;;;;;;21.80;13.93;;;5.00;99.90;;;;;;5052750;28;20891;-48
2022/01/13 11:05:45;;;;;;;19.93;14.80;;;5.10;99.90;;;;;;5035096;28;20982;-49
2022/01/13 11:08:11;;;;;;;18.23;12.63;;;5.20;99.90;;;;;;5035144;28;20472;-49
2022/01/13 11:10:39;;;;;;;24.10;14.00;;;5.20;99.90;;;;;;5051707;28;20867;-50
2022/01/13 11:13:07;;;;;;;20.33;12.80;;;5.20;99.90;;;;;;5051360;28;20656;-52
2022/01/13 11:15:34;;;;;;;23.73;17.40;;;5.20;99.90;;;;;;5050494;28;21047;-50
2022/01/13 11:18:00;;;;;;;29.10;17.87;;;5.30;99.90;;;;;;5049898;28;20800;-47
2022/01/13 11:20:28;;;;;;;24.50;15.63;;;5.40;99.90;;;;;;5051614;28;20446;-49
2022/01/13 11:22:56;;;;;;;20.23;14.00;;;5.30;99.90;;;;;;5050282;28;20499;-53
2022/01/13 11:25:24;;;;;;;45.87;13.50;;;5.50;99.90;;;;;;5051210;28;20442;-53
2022/01/13 11:27:53;;;;;;;16.13;12.00;;;5.50;99.90;;;;;;5052347;28;20926;-53
2022/01/13 11:30:25;;;;;;;16.37;11.90;;;5.50;99.90;;;;;;5038698;28;20959;-52
2022/01/13 11:32:51;;;;;;;12.33;10.27;;;5.50;99.90;;;;;;5052877;28;21158;-50
2022/01/13 11:35:27;;;;;;;16.13;12.10;;;5.60;99.90;;;;;;5047381;28;20426;-51
2022/01/13 11:37:56;;;;;;;18.77;13.50;;;5.50;99.90;;;;;;5050096;28;20438;-50
2022/01/13 11:40:27;;;;;;;20.00;14.17;;;5.50;99.90;;;;;;5050286;28;20967;-55
2022/01/13 11:42:54;;;;;;;20.70;14.40;;;5.60;99.90;;;;;;5051053;28;20455;-50
2022/01/13 11:45:21;;;;;;;20.50;14.70;;;5.60;99.90;;;;;;5048318;28;20442;-51
2022/01/13 11:47:48;;;;;;;23.57;15.17;;;5.60;99.90;;;;;;5051607;28;20454;-47
2022/01/13 11:50:30;;;;;;;21.50;15.53;;;5.70;99.90;;;;;;5030583;28;20451;-51
2022/01/13 11:52:57;;;;;;;24.60;17.03;;;5.80;99.90;;;;;;5051181;28;20443;-50
2022/01/13 11:55:35;;;;;;;22.20;15.20;;;5.90;99.90;;;;;;5048923;28;20512;-55
2022/01/13 11:58:14;;;;;;;20.80;14.93;;;5.80;99.90;;;;;;5052710;28;20887;-49
2022/01/13 12:00:42;;;;;;;20.67;14.30;;;6.10;99.90;;;;;;5048544;28;20524;-53
2022/01/13 12:03:28;;;;;;;18.40;14.73;;;6.20;99.90;;;;;;5051510;28;20598;-47
2022/01/13 12:05:55;;;;;;;17.47;13.63;;;6.50;99.90;;;;;;5053857;28;21005;-51
2022/01/13 12:08:48;;;;;;;20.83;14.23;;;6.70;99.90;;;;;;5050721;28;20436;-49
2022/01/13 12:11:55;;;;;;;18.20;13.67;;;7.30;99.90;;;;;;5051214;28;20446;-50
2022/01/13 12:14:27;;;;;;;17.63;13.43;;;7.80;99.90;;;;;;5048114;28;20443;-51
2022/01/13 12:16:55;;;;;;;15.80;12.50;;;8.20;99.90;;;;;;5036046;28;20461;-51
2022/01/13 12:19:50;;;;;;;20.87;14.10;;;8.60;99.90;;;;;;5048017;28;20583;-51
2022/01/13 12:22:30;;;;;;;18.30;12.73;;;9.00;99.90;;;;;;5033702;28;20528;-50
2022/01/13 12:24:59;;;;;;;16.73;12.30;;;9.80;99.90;;;;;;5050108;28;20815;-51
2022/01/13 12:27:43;;;;;;;11.33;9.70;;;10.80;99.90;;;;;;5032843;28;20947;-47
2022/01/13 12:30:16;;;;;;;13.17;11.27;;;12.20;99.90;;;;;;5048861;28;20499;-50
2022/01/13 12:32:48;;;;;;;12.67;10.50;;;13.50;99.90;;;;;;5053036;28;20522;-51
2022/01/13 12:35:37;;;;;;;14.77;11.10;;;15.00;99.90;;;;;;5049198;28;20449;-45
2022/01/13 12:38:06;;;;;;;15.03;11.63;;;16.40;99.90;;;;;;5049895;28;21033;-45
2022/01/13 12:40:45;;;;;;;12.40;10.20;;;16.90;95.30;;;;;;5035789;28;20427;-48
2022/01/13 12:43:21;;;;;;;17.20;12.03;;;17.30;93.00;;;;;;5048517;28;20465;-51
2022/01/13 12:45:47;;;;;;;13.27;11.10;;;17.90;90.80;;;;;;5047535;28;20450;-55
2022/01/13 12:48:13;;;;;;;14.53;11.43;;;18.70;86.20;;;;;;5052483;28;20422;-53
2022/01/13 12:50:44;;;;;;;14.07;12.67;;;19.20;81.80;;;;;;5052267;28;20552;-51
2022/01/13 12:53:13;;;;;;;13.00;11.60;;;19.80;78.40;;;;;;5051420;28;20191;-49
2022/01/13 12:55:42;;;;;;;11.90;10.80;;;20.30;72.90;;;;;;5049818;28;20473;-48
2022/01/13 12:58:08;;;;;;;11.60;10.40;;;20.50;71.70;;;;;;5051817;28;20456;-51
2022/01/13 13:00:35;;;;;;;12.90;11.60;;;20.10;67.70;;;;;;5053323;28;20540;-50
2022/01/13 13:03:06;;;;;;;13.87;11.70;;;19.90;67.50;;;;;;5052897;28;20484;-46
2022/01/13 13:05:38;;;;;;;13.43;11.73;;;19.70;66.80;;;;;;5048888;28;20461;-48
2022/01/13 13:08:06;;;;;;;11.87;10.67;;;18.40;67.10;;;;;;5049448;28;20521;-45
2022/01/13 13:10:32;;;;;;;12.70;10.83;;;16.70;69.50;;;;;;5054067;28;20433;-49
2022/01/13 13:12:59;;;;;;;12.70;11.37;;;15.60;73.30;;;;;;5053579;28;20559;-46